sensor_id;sensor_type;location;lat;lon;timestamp;pressure;altitude;pressure_sealevel;temperature;humidity
10852;BME280;5479;52.046;6.314;2022-10-24T00:01:11;100369.00;;;15.28;100.00
10852;BME280;5479;52.046;6.314;2022-10-24T00:03:40;100374.75;;;15.24;100.00
10852;BME280;5479;52.046;6.314;2022-10-24T00:06:09;100371.91;;;15.25;100.00
10852;BME280;5479;52.046;6.314;2022-10-24T00:08:39;100366.84;;;15.22;100.00
10852;BME280;5479;52.046;6.314;2022-10-24T00:11:09;100370.50;;;15.21;100.00
10852;BME280;5479;52.046;6.314;2022-10-24T00:13:38;100362.97;;;15.26;100.00
10852;BME280;5479;52.046;6.314;2022-10-24T00:16:07;100356.91;;;15.24;100.00
10852;BME280;5479;52.046;6.314;2022-10-24T00:18:36;100350.47;;;15.27;100.00
10852;BME280;5479;52.046;6.314;2022-10-24T00:21:05;100360.34;;;15.36;100.00
10852;BME280;5479;52.046;6.314;2022-10-24T00:23:34;100351.94;;;15.40;100.00
10852;BME280;5479;52.046;6.314;2022-10-24T00:26:02;100352.41;;;15.45;100.00
10852;BME280;5479;52.046;6.314;2022-10-24T00:28:31;100348.66;;;15.48;100.00
10852;BME280;5479;52.046;6.314;2022-10-24T00:31:00;100348.25;;;15.52;100.00
10852;BME280;5479;52.046;6.314;2022-10-24T00:33:29;100338.09;;;15.46;100.00
10852;BME280;5479;52.046;6.314;2022-10-24T00:35:58;100335.31;;;15.48;100.00
10852;BME280;5479;52.046;6.314;2022-10-24T00:38:26;100328.78;;;15.41;100.00
10852;BME280;5479;52.046;6.314;2022-10-24T00:40:54;100326.34;;;15.49;100.00
10852;BME280;5479;52.046;6.314;2022-10-24T00:43:25;100323.78;;;15.47;100.00
10852;BME280;5479;52.046;6.314;2022-10-24T00:45:53;100320.91;;;15.39;100.00
10852;BME280;5479;52.046;6.314;2022-10-24T00:48:26;100319.53;;;15.45;100.00
10852;BME280;5479;52.046;6.314;2022-10-24T00:51:00;100308.28;;;15.41;100.00
10852;BME280;5479;52.046;6.314;2022-10-24T00:53:29;100316.75;;;15.46;100.00
10852;BME280;5479;52.046;6.314;2022-10-24T00:56:00;100310.34;;;15.49;100.00
10852;BME280;5479;52.046;6.314;2022-10-24T00:58:30;100318.44;;;15.47;100.00
10852;BME280;5479;52.046;6.314;2022-10-24T01:00:59;100314.81;;;15.48;100.00
10852;BME280;5479;52.046;6.314;2022-10-24T01:03:27;100313.97;;;15.48;100.00
10852;BME280;5479;52.046;6.314;2022-10-24T01:06:13;100304.25;;;15.47;100.00
10852;BME280;5479;52.046;6.314;2022-10-24T01:08:49;100315.66;;;15.49;100.00
10852;BME280;5479;52.046;6.314;2022-10-24T01:11:34;100298.81;;;15.48;100.00
10852;BME280;5479;52.046;6.314;2022-10-24T01:14:13;100295.41;;;15.46;100.00
10852;BME280;5479;52.046;6.314;2022-10-24T01:16:50;100291.50;;;15.50;100.00
10852;BME280;5479;52.046;6.314;2022-10-24T01:19:40;100294.63;;;15.55;100.00
10852;BME280;5479;52.046;6.314;2022-10-24T01:22:18;100303.06;;;15.60;100.00
10852;BME280;5479;52.046;6.314;2022-10-24T01:25:01;100300.53;;;15.59;100.00
10852;BME280;5479;52.046;6.314;2022-10-24T01:27:40;100294.34;;;15.58;100.00
10852;BME280;5479;52.046;6.314;2022-10-24T01:30:13;100289.72;;;15.60;100.00
10852;BME280;5479;52.046;6.314;2022-10-24T01:32:47;100293.06;;;15.62;100.00
10852;BME280;5479;52.046;6.314;2022-10-24T01:35:26;100285.66;;;15.66;100.00
10852;BME280;5479;52.046;6.314;2022-10-24T01:38:02;100286.78;;;15.63;100.00
10852;BME280;5479;52.046;6.314;2022-10-24T01:40:34;100272.56;;;15.63;100.00
10852;BME280;5479;52.046;6.314;2022-10-24T01:43:08;100271.03;;;15.60;100.00
10852;BME280;5479;52.046;6.314;2022-10-24T01:45:42;100265.66;;;15.51;100.00
10852;BME280;5479;52.046;6.314;2022-10-24T01:48:15;100274.53;;;15.51;100.00
10852;BME280;5479;52.046;6.314;2022-10-24T01:50:45;100273.69;;;15.51;100.00
10852;BME280;5479;52.046;6.314;2022-10-24T01:53:14;100269.88;;;15.53;100.00
10852;BME280;5479;52.046;6.314;2022-10-24T01:55:44;100267.22;;;15.53;100.00
10852;BME280;5479;52.046;6.314;2022-10-24T01:58:12;100266.53;;;15.51;100.00
10852;BME280;5479;52.046;6.314;2022-10-24T02:00:43;100256.97;;;15.49;100.00
10852;BME280;5479;52.046;6.314;2022-10-24T02:03:19;100262.00;;;15.52;100.00
10852;BME280;5479;52.046;6.314;2022-10-24T02:05:51;100255.13;;;15.49;100.00
10852;BME280;5479;52.046;6.314;2022-10-24T02:08:24;100255.13;;;15.49;100.00
10852;BME280;5479;52.046;6.314;2022-10-24T02:10:56;100259.34;;;15.52;100.00
10852;BME280;5479;52.046;6.314;2022-10-24T02:13:28;100254.56;;;15.46;100.00
10852;BME280;5479;52.046;6.314;2022-10-24T02:16:01;100246.78;;;15.43;100.00
10852;BME280;5479;52.046;6.314;2022-10-24T02:18:29;100252.97;;;15.43;100.00
10852;BME280;5479;52.046;6.314;2022-10-24T02:21:07;100239.06;;;15.40;100.00
10852;BME280;5479;52.046;6.314;2022-10-24T02:23:42;100249.06;;;15.47;100.00
10852;BME280;5479;52.046;6.314;2022-10-24T02:26:15;100252.44;;;15.49;100.00
10852;BME280;5479;52.046;6.314;2022-10-24T02:28:48;100249.66;;;15.51;100.00
10852;BME280;5479;52.046;6.314;2022-10-24T02:31:22;100242.50;;;15.51;100.00
10852;BME280;5479;52.046;6.314;2022-10-24T02:33:53;100236.44;;;15.49;100.00
10852;BME280;5479;52.046;6.314;2022-10-24T02:36:26;100238.56;;;15.46;100.00
10852;BME280;5479;52.046;6.314;2022-10-24T02:38:56;100246.13;;;15.50;100.00
10852;BME280;5479;52.046;6.314;2022-10-24T02:41:27;100235.53;;;15.39;100.00
10852;BME280;5479;52.046;6.314;2022-10-24T02:43:57;100236.50;;;15.38;100.00
10852;BME280;5479;52.046;6.314;2022-10-24T02:46:28;100234.13;;;15.35;100.00
10852;BME280;5479;52.046;6.314;2022-10-24T02:48:59;100233.81;;;15.38;100.00
10852;BME280;5479;52.046;6.314;2022-10-24T02:51:31;100241.41;;;15.33;100.00
10852;BME280;5479;52.046;6.314;2022-10-24T02:54:02;100230.16;;;15.30;100.00
10852;BME280;5479;52.046;6.314;2022-10-24T02:56:30;100243.38;;;15.31;100.00
10852;BME280;5479;52.046;6.314;2022-10-24T02:58:58;100236.06;;;15.33;100.00
10852;BME280;5479;52.046;6.314;2022-10-24T03:01:29;100232.75;;;15.41;100.00
10852;BME280;5479;52.046;6.314;2022-10-24T03:03:57;100227.41;;;15.41;100.00
10852;BME280;5479;52.046;6.314;2022-10-24T03:06:25;100242.56;;;15.40;100.00
10852;BME280;5479;52.046;6.314;2022-10-24T03:08:53;100240.09;;;15.48;100.00
10852;BME280;5479;52.046;6.314;2022-10-24T03:11:21;100231.69;;;15.53;100.00
10852;BME280;5479;52.046;6.314;2022-10-24T03:13:49;100237.19;;;15.61;100.00
10852;BME280;5479;52.046;6.314;2022-10-24T03:16:18;100232.69;;;15.61;100.00
10852;BME280;5479;52.046;6.314;2022-10-24T03:18:47;100227.47;;;15.60;100.00
10852;BME280;5479;52.046;6.314;2022-10-24T03:21:15;100233.50;;;15.52;100.00
10852;BME280;5479;52.046;6.314;2022-10-24T03:23:43;100239.47;;;15.45;100.00
10852;BME280;5479;52.046;6.314;2022-10-24T03:26:11;100240.34;;;15.45;100.00
10852;BME280;5479;52.046;6.314;2022-10-24T03:28:39;100241.78;;;15.49;100.00
10852;BME280;5479;52.046;6.314;2022-10-24T03:31:07;100244.72;;;15.46;100.00
10852;BME280;5479;52.046;6.314;2022-10-24T03:33:35;100246.28;;;15.49;100.00
10852;BME280;5479;52.046;6.314;2022-10-24T03:36:05;100247.09;;;15.49;100.00
10852;BME280;5479;52.046;6.314;2022-10-24T03:38:33;100244.97;;;15.43;100.00
10852;BME280;5479;52.046;6.314;2022-10-24T03:41:01;100242.03;;;15.46;100.00
10852;BME280;5479;52.046;6.314;2022-10-24T03:43:30;100249.31;;;15.44;100.00
10852;BME280;5479;52.046;6.314;2022-10-24T03:45:58;100241.13;;;15.36;100.00
10852;BME280;5479;52.046;6.314;2022-10-24T03:48:26;100242.56;;;15.40;100.00
10852;BME280;5479;52.046;6.314;2022-10-24T03:50:54;100242.56;;;15.40;100.00
10852;BME280;5479;52.046;6.314;2022-10-24T03:53:24;100240.34;;;15.45;100.00
10852;BME280;5479;52.046;6.314;2022-10-24T03:55:52;100228.97;;;15.43;100.00
10852;BME280;5479;52.046;6.314;2022-10-24T03:58:22;100232.75;;;15.41;100.00
10852;BME280;5479;52.046;6.314;2022-10-24T04:00:52;100235.53;;;15.39;100.00
10852;BME280;5479;52.046;6.314;2022-10-24T04:03:22;100238.91;;;15.41;100.00
10852;BME280;5479;52.046;6.314;2022-10-24T04:05:51;100242.31;;;15.43;100.00
10852;BME280;5479;52.046;6.314;2022-10-24T04:08:20;100240.09;;;15.48;100.00
10852;BME280;5479;52.046;6.314;2022-10-24T04:10:49;100248.22;;;15.47;100.00
10852;BME280;5479;52.046;6.314;2022-10-24T04:13:17;100238.91;;;15.41;100.00
10852;BME280;5479;52.046;6.314;2022-10-24T04:15:45;100237.75;;;15.34;100.00
10852;BME280;5479;52.046;6.314;2022-10-24T04:18:13;100238.56;;;15.25;100.00
10852;BME280;5479;52.046;6.314;2022-10-24T04:20:41;100239.81;;;15.21;100.00
10852;BME280;5479;52.046;6.314;2022-10-24T04:23:09;100239.81;;;15.21;100.00
10852;BME280;5479;52.046;6.314;2022-10-24T04:25:38;100236.56;;;15.18;100.00
10852;BME280;5479;52.046;6.314;2022-10-24T04:28:07;100233.19;;;15.16;100.00
10852;BME280;5479;52.046;6.314;2022-10-24T04:30:35;100245.81;;;15.14;100.00
10852;BME280;5479;52.046;6.314;2022-10-24T04:33:03;100244.66;;;15.06;100.00
10852;BME280;5479;52.046;6.314;2022-10-24T04:35:31;100230.19;;;15.09;100.00
10852;BME280;5479;52.046;6.314;2022-10-24T04:37:59;100238.50;;;15.06;100.00
10852;BME280;5479;52.046;6.314;2022-10-24T04:40:27;100233.72;;;15.09;100.00
10852;BME280;5479;52.046;6.314;2022-10-24T04:42:56;100233.53;;;15.01;100.00
10852;BME280;5479;52.046;6.314;2022-10-24T04:45:29;100233.25;;;14.95;100.00
10852;BME280;5479;52.046;6.314;2022-10-24T04:47:57;100229.84;;;14.93;100.00
10852;BME280;5479;52.046;6.314;2022-10-24T04:50:25;100228.59;;;14.97;100.00
10852;BME280;5479;52.046;6.314;2022-10-24T04:52:53;100234.19;;;14.94;100.00
10852;BME280;5479;52.046;6.314;2022-10-24T04:55:21;100226.47;;;14.91;100.00
10852;BME280;5479;52.046;6.314;2022-10-24T04:57:49;100233.88;;;14.87;100.00
10852;BME280;5479;52.046;6.314;2022-10-24T05:00:19;100233.50;;;14.92;100.00
10852;BME280;5479;52.046;6.314;2022-10-24T05:02:48;100234.91;;;14.96;100.00
10852;BME280;5479;52.046;6.314;2022-10-24T05:05:17;100228.88;;;14.94;100.00
10852;BME280;5479;52.046;6.314;2022-10-24T05:07:45;100236.72;;;14.95;100.00
10852;BME280;5479;52.046;6.314;2022-10-24T05:10:14;100238.94;;;14.90;100.00
10852;BME280;5479;52.046;6.314;2022-10-24T05:12:42;100238.13;;;14.90;100.00
10852;BME280;5479;52.046;6.314;2022-10-24T05:15:11;100241.06;;;14.87;100.00
10852;BME280;5479;52.046;6.314;2022-10-24T05:17:39;100257.50;;;14.92;100.00
10852;BME280;5479;52.046;6.314;2022-10-24T05:20:09;100243.31;;;14.91;100.00
10852;BME280;5479;52.046;6.314;2022-10-24T05:22:37;100243.91;;;14.95;100.00
10852;BME280;5479;52.046;6.314;2022-10-24T05:25:06;100253.81;;;14.93;100.00
10852;BME280;5479;52.046;6.314;2022-10-24T05:27:35;100256.97;;;14.98;100.00
10852;BME280;5479;52.046;6.314;2022-10-24T05:30:04;100258.38;;;15.02;100.00
10852;BME280;5479;52.046;6.314;2022-10-24T05:32:33;100264.31;;;15.05;100.00
10852;BME280;5479;52.046;6.314;2022-10-24T05:35:01;100256.41;;;15.04;100.00
10852;BME280;5479;52.046;6.314;2022-10-24T05:37:30;100265.41;;;15.03;100.00
10852;BME280;5479;52.046;6.314;2022-10-24T05:39:58;100269.09;;;15.11;100.00
10852;BME280;5479;52.046;6.314;2022-10-24T05:42:26;100266.50;;;15.21;100.00
10852;BME280;5479;52.046;6.314;2022-10-24T05:44:54;100264.69;;;15.31;100.00
10852;BME280;5479;52.046;6.314;2022-10-24T05:47:22;100260.50;;;15.38;100.00
10852;BME280;5479;52.046;6.314;2022-10-24T05:49:50;100260.25;;;15.41;100.00
10852;BME280;5479;52.046;6.314;2022-10-24T05:52:18;100260.25;;;15.41;100.00
10852;BME280;5479;52.046;6.314;2022-10-24T05:54:47;100263.47;;;15.35;100.00
10852;BME280;5479;52.046;6.314;2022-10-24T05:57:15;100255.00;;;15.30;100.00
10852;BME280;5479;52.046;6.314;2022-10-24T05:59:43;100249.41;;;15.33;100.00
10852;BME280;5479;52.046;6.314;2022-10-24T06:02:16;100256.88;;;15.39;100.00
10852;BME280;5479;52.046;6.314;2022-10-24T06:04:44;100264.44;;;15.34;100.00
10852;BME280;5479;52.046;6.314;2022-10-24T06:07:12;100265.84;;;15.38;100.00
10852;BME280;5479;52.046;6.314;2022-10-24T06:09:40;100266.00;;;15.37;100.00
10852;BME280;5479;52.046;6.314;2022-10-24T06:12:12;100262.63;;;15.35;100.00
10852;BME280;5479;52.046;6.314;2022-10-24T06:14:40;100258.84;;;15.37;100.00
10852;BME280;5479;52.046;6.314;2022-10-24T06:17:08;100267.81;;;15.36;100.00
10852;BME280;5479;52.046;6.314;2022-10-24T06:19:37;100258.31;;;15.43;100.00
10852;BME280;5479;52.046;6.314;2022-10-24T06:22:06;100254.91;;;15.41;100.00
10852;BME280;5479;52.046;6.314;2022-10-24T06:24:36;100250.31;;;15.43;100.00
10852;BME280;5479;52.046;6.314;2022-10-24T06:27:05;100249.31;;;15.44;100.00
10852;BME280;5479;52.046;6.314;2022-10-24T06:29:34;100239.09;;;15.49;100.00
10852;BME280;5479;52.046;6.314;2022-10-24T06:32:03;100260.44;;;15.49;100.00
10852;BME280;5479;52.046;6.314;2022-10-24T06:34:31;100258.03;;;15.46;100.00
10852;BME280;5479;52.046;6.314;2022-10-24T06:36:59;100257.94;;;15.48;100.00
10852;BME280;5479;52.046;6.314;2022-10-24T06:39:27;100255.75;;;15.42;100.00
10852;BME280;5479;52.046;6.314;2022-10-24T06:41:56;100268.13;;;15.43;100.00
10852;BME280;5479;52.046;6.314;2022-10-24T06:44:25;100267.97;;;15.44;100.00
10852;BME280;5479;52.046;6.314;2022-10-24T06:46:55;100263.44;;;15.56;100.00
10852;BME280;5479;52.046;6.314;2022-10-24T06:49:23;100269.34;;;15.59;100.00
10852;BME280;5479;52.046;6.314;2022-10-24T06:51:51;100273.00;;;15.58;100.00
10852;BME280;5479;52.046;6.314;2022-10-24T06:54:18;100263.72;;;15.62;100.00
10852;BME280;5479;52.046;6.314;2022-10-24T06:56:46;100276.81;;;15.65;100.00
10852;BME280;5479;52.046;6.314;2022-10-24T06:59:15;100278.22;;;15.69;100.00
10852;BME280;5479;52.046;6.314;2022-10-24T07:01:44;100282.31;;;15.74;100.00
10852;BME280;5479;52.046;6.314;2022-10-24T07:04:14;100283.03;;;15.76;100.00
10852;BME280;5479;52.046;6.314;2022-10-24T07:06:42;100287.38;;;15.77;100.00
10852;BME280;5479;52.046;6.314;2022-10-24T07:09:11;100291.19;;;15.84;100.00
10852;BME280;5479;52.046;6.314;2022-10-24T07:11:40;100290.00;;;16.07;100.00
10852;BME280;5479;52.046;6.314;2022-10-24T07:14:09;100293.69;;;16.44;100.00
10852;BME280;5479;52.046;6.314;2022-10-24T07:16:37;100292.81;;;16.92;100.00
10852;BME280;5479;52.046;6.314;2022-10-24T07:19:07;100297.28;;;17.20;100.00
10852;BME280;5479;52.046;6.314;2022-10-24T07:21:36;100299.25;;;17.18;100.00
10852;BME280;5479;52.046;6.314;2022-10-24T07:24:05;100306.25;;;17.28;100.00
10852;BME280;5479;52.046;6.314;2022-10-24T07:26:33;100305.59;;;17.63;100.00
10852;BME280;5479;52.046;6.314;2022-10-24T07:29:01;100312.69;;;17.45;100.00
10852;BME280;5479;52.046;6.314;2022-10-24T07:31:32;100310.63;;;17.29;100.00
10852;BME280;5479;52.046;6.314;2022-10-24T07:34:04;100317.81;;;17.29;100.00
10852;BME280;5479;52.046;6.314;2022-10-24T07:36:33;100317.41;;;17.70;100.00
10852;BME280;5479;52.046;6.314;2022-10-24T07:39:02;100320.28;;;17.59;100.00
10852;BME280;5479;52.046;6.314;2022-10-24T07:41:31;100319.22;;;17.33;100.00
10852;BME280;5479;52.046;6.314;2022-10-24T07:43:59;100316.66;;;17.31;100.00
10852;BME280;5479;52.046;6.314;2022-10-24T07:46:29;100313.22;;;17.68;100.00
10852;BME280;5479;52.046;6.314;2022-10-24T07:48:57;100310.41;;;18.14;100.00
10852;BME280;5479;52.046;6.314;2022-10-24T07:51:25;100316.13;;;18.01;100.00
10852;BME280;5479;52.046;6.314;2022-10-24T07:53:54;100308.47;;;17.79;100.00
10852;BME280;5479;52.046;6.314;2022-10-24T07:56:24;100306.09;;;17.76;100.00
10852;BME280;5479;52.046;6.314;2022-10-24T07:58:54;100311.06;;;17.98;100.00
10852;BME280;5479;52.046;6.314;2022-10-24T08:01:27;100318.22;;;18.25;100.00
10852;BME280;5479;52.046;6.314;2022-10-24T08:03:56;100317.75;;;18.75;100.00
10852;BME280;5479;52.046;6.314;2022-10-24T08:06:28;100313.78;;;18.61;100.00
10852;BME280;5479;52.046;6.314;2022-10-24T08:08:57;100315.25;;;18.46;100.00
10852;BME280;5479;52.046;6.314;2022-10-24T08:11:27;100325.47;;;18.60;100.00
10852;BME280;5479;52.046;6.314;2022-10-24T08:13:58;100324.25;;;18.90;100.00
10852;BME280;5479;52.046;6.314;2022-10-24T08:16:27;100324.06;;;19.35;99.48
10852;BME280;5479;52.046;6.314;2022-10-24T08:18:57;100333.50;;;18.95;99.62
10852;BME280;5479;52.046;6.314;2022-10-24T08:21:25;100344.34;;;18.86;100.00
10852;BME280;5479;52.046;6.314;2022-10-24T08:23:53;100328.47;;;18.57;100.00
10852;BME280;5479;52.046;6.314;2022-10-24T08:26:23;100335.69;;;18.56;100.00
10852;BME280;5479;52.046;6.314;2022-10-24T08:28:54;100334.13;;;18.54;100.00
10852;BME280;5479;52.046;6.314;2022-10-24T08:31:24;100337.16;;;18.24;100.00
10852;BME280;5479;52.046;6.314;2022-10-24T08:33:53;100341.84;;;17.94;100.00
10852;BME280;5479;52.046;6.314;2022-10-24T08:36:26;100343.84;;;17.83;100.00
10852;BME280;5479;52.046;6.314;2022-10-24T08:38:56;100349.84;;;17.67;100.00
10852;BME280;5479;52.046;6.314;2022-10-24T08:41:28;100354.94;;;17.51;100.00
10852;BME280;5479;52.046;6.314;2022-10-24T08:44:01;100364.56;;;17.34;100.00
10852;BME280;5479;52.046;6.314;2022-10-24T08:46:37;100371.31;;;17.29;100.00
10852;BME280;5479;52.046;6.314;2022-10-24T08:49:16;100373.31;;;17.27;100.00
10852;BME280;5479;52.046;6.314;2022-10-24T08:51:50;100387.78;;;17.34;100.00
10852;BME280;5479;52.046;6.314;2022-10-24T08:54:22;100380.91;;;17.31;100.00
10852;BME280;5479;52.046;6.314;2022-10-24T08:56:54;100383.03;;;17.18;100.00
10852;BME280;5479;52.046;6.314;2022-10-24T08:59:26;100393.47;;;17.12;100.00
10852;BME280;5479;52.046;6.314;2022-10-24T09:02:18;100388.13;;;17.12;100.00
10852;BME280;5479;52.046;6.314;2022-10-24T09:04:50;100388.66;;;17.25;100.00
10852;BME280;5479;52.046;6.314;2022-10-24T09:07:22;100388.66;;;17.90;100.00
10852;BME280;5479;52.046;6.314;2022-10-24T09:09:59;100375.16;;;18.99;100.00
10852;BME280;5479;52.046;6.314;2022-10-24T09:12:29;100374.81;;;19.63;100.00
10852;BME280;5479;52.046;6.314;2022-10-24T09:15:00;100382.47;;;19.58;99.36
10852;BME280;5479;52.046;6.314;2022-10-24T09:17:35;100380.69;;;19.23;100.00
10852;BME280;5479;52.046;6.314;2022-10-24T09:20:19;100386.38;;;18.50;100.00
10852;BME280;5479;52.046;6.314;2022-10-24T09:22:48;100388.31;;;18.57;100.00
10852;BME280;5479;52.046;6.314;2022-10-24T09:25:18;100388.28;;;19.10;100.00
10852;BME280;5479;52.046;6.314;2022-10-24T09:27:48;100391.06;;;19.62;98.02
10852;BME280;5479;52.046;6.314;2022-10-24T09:30:21;100400.66;;;19.90;95.60
10852;BME280;5479;52.046;6.314;2022-10-24T09:32:51;100392.31;;;20.09;93.25
10852;BME280;5479;52.046;6.314;2022-10-24T09:35:23;100400.69;;;19.98;90.72
10852;BME280;5479;52.046;6.314;2022-10-24T09:37:53;100400.16;;;20.28;87.02
10852;BME280;5479;52.046;6.314;2022-10-24T09:40:23;100391.63;;;20.07;88.92
10852;BME280;5479;52.046;6.314;2022-10-24T09:42:54;100410.41;;;20.25;86.59
10852;BME280;5479;52.046;6.314;2022-10-24T09:45:37;100419.22;;;20.17;86.20
10852;BME280;5479;52.046;6.314;2022-10-24T09:48:16;100417.50;;;20.00;87.77
10852;BME280;5479;52.046;6.314;2022-10-24T09:50:47;100414.56;;;20.61;82.69
10852;BME280;5479;52.046;6.314;2022-10-24T09:53:22;100423.09;;;21.23;77.35
10852;BME280;5479;52.046;6.314;2022-10-24T09:55:54;100427.91;;;21.03;75.84
10852;BME280;5479;52.046;6.314;2022-10-24T09:58:25;100430.78;;;20.35;79.55
10852;BME280;5479;52.046;6.314;2022-10-24T10:01:18;100435.72;;;20.14;81.15
10852;BME280;5479;52.046;6.314;2022-10-24T10:04:02;100439.38;;;19.79;83.17
10852;BME280;5479;52.046;6.314;2022-10-24T10:06:32;100431.28;;;19.54;86.96
10852;BME280;5479;52.046;6.314;2022-10-24T10:09:00;100436.47;;;19.73;87.73
10852;BME280;5479;52.046;6.314;2022-10-24T10:11:30;100441.34;;;19.77;86.00
10852;BME280;5479;52.046;6.314;2022-10-24T10:14:05;100440.38;;;19.53;86.67
10852;BME280;5479;52.046;6.314;2022-10-24T10:16:57;100442.56;;;19.83;85.13
10852;BME280;5479;52.046;6.314;2022-10-24T10:19:26;100462.44;;;19.64;82.16
10852;BME280;5479;52.046;6.314;2022-10-24T10:21:57;100450.19;;;19.44;83.43
10852;BME280;5479;52.046;6.314;2022-10-24T10:24:36;100456.94;;;19.31;88.20
10852;BME280;5479;52.046;6.314;2022-10-24T10:27:26;100447.88;;;19.32;87.74
10852;BME280;5479;52.046;6.314;2022-10-24T10:30:13;100462.16;;;19.14;91.44
10852;BME280;5479;52.046;6.314;2022-10-24T10:32:49;100458.25;;;18.91;91.49
10852;BME280;5479;52.046;6.314;2022-10-24T10:35:21;100458.75;;;18.77;92.89
10852;BME280;5479;52.046;6.314;2022-10-24T10:37:57;100465.38;;;18.46;92.88
10852;BME280;5479;52.046;6.314;2022-10-24T10:40:31;100472.59;;;18.73;90.18
10852;BME280;5479;52.046;6.314;2022-10-24T10:43:13;100465.66;;;18.80;90.55
10852;BME280;5479;52.046;6.314;2022-10-24T10:45:46;100466.69;;;18.96;85.68
10852;BME280;5479;52.046;6.314;2022-10-24T10:48:26;100468.13;;;19.08;87.03
10852;BME280;5479;52.046;6.314;2022-10-24T10:51:02;100478.34;;;19.40;87.08
10852;BME280;5479;52.046;6.314;2022-10-24T10:53:36;100476.16;;;19.61;86.78
10852;BME280;5479;52.046;6.314;2022-10-24T10:56:17;100480.47;;;19.54;84.92
10852;BME280;5479;52.046;6.314;2022-10-24T10:58:54;100482.00;;;20.00;82.67
10852;BME280;5479;52.046;6.314;2022-10-24T11:01:30;100493.75;;;20.59;79.33
10852;BME280;5479;52.046;6.314;2022-10-24T11:04:08;100485.22;;;20.79;76.95
10852;BME280;5479;52.046;6.314;2022-10-24T11:06:47;100496.72;;;20.48;77.40
10852;BME280;5479;52.046;6.314;2022-10-24T11:09:38;100494.63;;;20.33;75.57
10852;BME280;5479;52.046;6.314;2022-10-24T11:12:33;100492.56;;;19.76;75.60
10852;BME280;5479;52.046;6.314;2022-10-24T11:15:08;100501.03;;;19.28;82.21
10852;BME280;5479;52.046;6.314;2022-10-24T11:17:45;100504.16;;;19.23;84.71
10852;BME280;5479;52.046;6.314;2022-10-24T11:20:21;100507.41;;;19.09;88.50
10852;BME280;5479;52.046;6.314;2022-10-24T11:22:54;100512.00;;;19.35;86.39
10852;BME280;5479;52.046;6.314;2022-10-24T11:25:27;100509.25;;;19.62;83.73
10852;BME280;5479;52.046;6.314;2022-10-24T11:28:03;100509.78;;;19.48;82.75
10852;BME280;5479;52.046;6.314;2022-10-24T11:30:44;100518.97;;;19.10;85.55
10852;BME280;5479;52.046;6.314;2022-10-24T11:33:17;100528.22;;;18.80;87.29
10852;BME280;5479;52.046;6.314;2022-10-24T11:36:07;100524.59;;;18.62;91.08
10852;BME280;5479;52.046;6.314;2022-10-24T11:38:43;100536.66;;;18.85;91.39
10852;BME280;5479;52.046;6.314;2022-10-24T11:41:28;100523.81;;;19.06;88.70
10852;BME280;5479;52.046;6.314;2022-10-24T11:44:02;100525.41;;;19.17;88.07
10852;BME280;5479;52.046;6.314;2022-10-24T11:46:35;100532.53;;;19.08;85.18
10852;BME280;5479;52.046;6.314;2022-10-24T11:49:14;100521.97;;;19.07;87.58
10852;BME280;5479;52.046;6.314;2022-10-24T11:51:50;100530.38;;;18.94;88.26
10852;BME280;5479;52.046;6.314;2022-10-24T11:54:25;100534.94;;;18.84;87.75
10852;BME280;5479;52.046;6.314;2022-10-24T11:57:00;100541.63;;;18.80;89.43
10852;BME280;5479;52.046;6.314;2022-10-24T11:59:29;100548.25;;;18.76;88.63
10852;BME280;5479;52.046;6.314;2022-10-24T12:02:48;100541.34;;;19.01;89.25
10852;BME280;5479;52.046;6.314;2022-10-24T12:05:44;100550.34;;;19.09;88.15
10852;BME280;5479;52.046;6.314;2022-10-24T12:08:31;100545.81;;;19.10;88.76
10852;BME280;5479;52.046;6.314;2022-10-24T12:11:23;100539.81;;;19.16;89.12
10852;BME280;5479;52.046;6.314;2022-10-24T12:14:16;100548.03;;;19.14;88.41
10852;BME280;5479;52.046;6.314;2022-10-24T12:16:56;100548.19;;;19.13;90.21
10852;BME280;5479;52.046;6.314;2022-10-24T12:19:30;100546.88;;;18.99;92.62
10852;BME280;5479;52.046;6.314;2022-10-24T12:22:00;100563.94;;;18.25;100.00
10852;BME280;5479;52.046;6.314;2022-10-24T12:24:32;100564.59;;;17.42;100.00
10852;BME280;5479;52.046;6.314;2022-10-24T12:27:03;100573.91;;;16.88;100.00
10852;BME280;5479;52.046;6.314;2022-10-24T12:29:34;100597.00;;;16.29;100.00
10852;BME280;5479;52.046;6.314;2022-10-24T12:32:23;100592.63;;;15.87;100.00
10852;BME280;5479;52.046;6.314;2022-10-24T12:34:56;100580.16;;;15.55;100.00
10852;BME280;5479;52.046;6.314;2022-10-24T12:37:34;100589.88;;;15.56;100.00
10852;BME280;5479;52.046;6.314;2022-10-24T12:43:16;100588.97;;;15.67;100.00
10852;BME280;5479;52.046;6.314;2022-10-24T12:45:54;100601.88;;;15.83;100.00
10852;BME280;5479;52.046;6.314;2022-10-24T12:48:33;100604.16;;;15.87;100.00
10852;BME280;5479;52.046;6.314;2022-10-24T12:51:27;100611.41;;;15.76;100.00
10852;BME280;5479;52.046;6.314;2022-10-24T12:54:03;100607.53;;;15.89;100.00
10852;BME280;5479;52.046;6.314;2022-10-24T12:56:32;100611.78;;;15.92;100.00
10852;BME280;5479;52.046;6.314;2022-10-24T12:59:16;100603.06;;;15.90;100.00
10852;BME280;5479;52.046;6.314;2022-10-24T13:01:47;100601.09;;;15.92;100.00
10852;BME280;5479;52.046;6.314;2022-10-24T13:04:32;100598.38;;;16.03;100.00
10852;BME280;5479;52.046;6.314;2022-10-24T13:07:14;100596.88;;;16.10;100.00
10852;BME280;5479;52.046;6.314;2022-10-24T13:09:54;100601.78;;;16.05;100.00
10852;BME280;5479;52.046;6.314;2022-10-24T13:12:44;100608.53;;;16.09;100.00
10852;BME280;5479;52.046;6.314;2022-10-24T13:15:27;100616.84;;;15.95;100.00
10852;BME280;5479;52.046;6.314;2022-10-24T13:18:07;100619.59;;;15.84;100.00
10852;BME280;5479;52.046;6.314;2022-10-24T13:20:42;100614.44;;;15.71;100.00
10852;BME280;5479;52.046;6.314;2022-10-24T13:23:15;100614.47;;;15.60;100.00